Time;durP1;ratioP1;P1;durP2;ratioP2;P2;SDS_P1;SDS_P2;PMS_P1;PMS_P2;Temp;Humidity;BMP_temperature;BMP_pressure;BME280_temperature;BME280_humidity;BME280_pressure;Samples;Min_cycle;Max_cycle;Signal;HPM_P1;HPM_P2
2022/08/05 00:00:08;;;;;;;3.55;3.17;;;27.20;49.10;;;23.87;62.19;95329.91;4917749;29;20031;-51
2022/08/05 00:02:35;;;;;;;3.80;3.40;;;27.20;49.30;;;23.84;62.27;95327.91;4917672;29;20058;-50
2022/08/05 00:05:02;;;;;;;5.70;2.83;;;27.20;49.30;;;23.80;61.02;95329.75;4933517;29;20039;-50
2022/08/05 00:07:33;;;;;;;4.38;2.90;;;27.20;49.30;;;23.78;61.24;95338.28;4916629;29;20427;-50
2022/08/05 00:09:59;;;;;;;4.95;2.85;;;27.20;49.30;;;23.74;59.98;95331.19;4932844;29;20027;-46
2022/08/05 00:12:31;;;;;;;3.35;3.00;;;27.20;49.10;;;23.73;61.00;95335.84;4916036;29;20121;-48
2022/08/05 00:15:06;;;;;;;4.50;3.27;;;27.20;49.30;;;23.75;59.77;95338.19;4933292;29;20379;-47
2022/08/05 00:17:32;;;;;;;3.03;2.75;;;27.20;49.00;;;23.76;60.32;95340.56;4933393;29;20372;-48
2022/08/05 00:20:00;;;;;;;4.78;3.00;;;27.20;49.00;;;23.80;59.42;95345.28;4915798;29;20486;-47
2022/08/05 00:22:29;;;;;;;4.03;3.00;;;27.20;48.90;;;23.81;59.43;95344.94;4932186;29;20553;-47
2022/08/05 00:25:07;;;;;;;4.28;2.95;;;27.20;48.90;;;23.82;59.22;95340.28;4931539;29;20038;-50
2022/08/05 00:27:35;;;;;;;3.38;3.08;;;27.20;48.80;;;23.82;60.65;95345.72;4933252;29;20031;-47
2022/08/05 00:30:02;;;;;;;4.45;3.10;;;27.20;48.90;;;23.80;61.92;95345.28;4932779;29;20030;-46
2022/08/05 00:32:28;;;;;;;3.53;3.00;;;27.20;49.10;;;23.77;61.65;95336.69;4932869;29;20022;-48
2022/08/05 00:34:57;;;;;;;3.55;3.00;;;27.10;49.20;;;23.75;60.70;95343.63;4932714;29;20031;-50
2022/08/05 00:37:28;;;;;;;4.25;3.13;;;27.10;49.20;;;23.74;60.10;95347.50;4932834;29;20402;-53
2022/08/05 00:39:57;;;;;;;4.38;3.45;;;27.20;49.20;;;23.74;59.97;95350.22;4931400;29;20486;-47
2022/08/05 00:42:36;;;;;;;3.10;2.80;;;27.10;49.10;;;23.71;60.30;95348.97;4931504;29;20034;-49
2022/08/05 00:45:08;;;;;;;12.70;4.18;;;27.10;49.20;;;23.78;59.10;95356.50;4931728;29;20136;-48
2022/08/05 00:47:37;;;;;;;3.40;3.10;;;27.20;49.10;;;23.93;58.31;95360.34;4931397;29;20494;-46
2022/08/05 00:50:07;;;;;;;8.07;3.38;;;27.20;48.90;;;24.07;57.71;95352.50;4931761;29;20030;-46
2022/08/05 00:52:33;;;;;;;3.38;3.08;;;27.30;48.80;;;24.27;56.55;95356.00;4915436;29;20110;-47
2022/08/05 00:55:08;;;;;;;4.28;3.10;;;27.40;48.60;;;24.44;55.60;95373.88;4900186;29;20118;-46
2022/08/05 00:57:37;;;;;;;6.78;3.33;;;27.50;48.40;;;24.56;56.43;95376.44;4915979;29;20037;-46
2022/08/05 01:00:07;;;;;;;6.57;3.47;;;27.60;48.20;;;24.61;55.84;95372.66;4932305;29;20023;-47
2022/08/05 01:02:33;;;;;;;5.20;3.42;;;27.70;48.00;;;24.67;56.72;95379.38;4922145;29;20027;-47
2022/08/05 01:05:01;;;;;;;6.53;3.72;;;27.80;48.00;;;24.67;56.15;95395.72;4932532;29;20094;-50
2022/08/05 01:07:30;;;;;;;5.57;3.40;;;27.80;47.80;;;24.71;57.17;95391.13;4931365;29;20023;-47
2022/08/05 01:10:02;;;;;;;5.53;3.30;;;27.90;48.00;;;24.70;58.17;95400.44;4933982;29;20037;-46
2022/08/05 01:12:29;;;;;;;3.93;3.53;;;27.90;48.10;;;24.64;56.84;95407.34;4935088;29;20394;-48
2022/08/05 01:15:09;;;;;;;4.28;3.45;;;27.90;47.80;;;24.62;55.80;95409.63;4935006;29;21016;-46
2022/08/05 01:17:49;;;;;;;4.10;3.70;;;27.90;47.70;;;24.72;55.57;95411.75;4935109;29;20033;-48
2022/08/05 01:21:07;;;;;;;4.78;3.33;;;27.90;47.50;;;24.82;55.48;95411.19;4935207;29;20030;-46
2022/08/05 01:24:22;;;;;;;4.38;3.35;;;28.00;47.60;;;24.93;56.04;95422.28;4934967;29;20027;-46
2022/08/05 01:27:24;;;;;;;5.70;3.20;;;28.00;47.70;;;24.94;54.63;95418.41;4935122;29;20039;-48
2022/08/05 01:30:04;;;;;;;3.53;2.92;;;28.00;47.40;;;24.95;54.31;95413.75;4935881;29;20035;-48
2022/08/05 01:32:39;;;;;;;3.97;2.80;;;28.10;47.20;;;25.00;53.03;95427.06;4919096;29;20031;-47
2022/08/05 01:35:16;;;;;;;2.60;2.40;;;28.10;46.90;;;25.05;52.13;95430.28;4934906;29;20073;-47
2022/08/05 01:38:05;;;;;;;3.22;2.88;;;28.10;46.50;;;25.18;51.58;95433.66;4934546;29;20023;-48
2022/08/05 01:40:37;;;;;;;3.78;3.13;;;28.20;46.20;;;25.21;51.51;95445.78;4934710;29;20030;-48
2022/08/05 01:43:08;;;;;;;3.10;2.75;;;28.20;45.90;;;25.21;53.28;95467.59;4918763;29;20034;-46
2022/08/05 01:45:40;;;;;;;5.32;2.58;;;28.20;46.00;;;25.11;52.95;95469.72;4934505;29;20402;-47
2022/08/05 01:48:08;;;;;;;3.13;2.83;;;28.20;46.10;;;24.97;53.08;95466.72;4934261;29;20023;-50
2022/08/05 01:50:40;;;;;;;5.03;2.47;;;28.20;46.00;;;24.96;55.97;95478.78;4934577;29;20039;-46
2022/08/05 01:53:15;;;;;;;3.58;2.78;;;28.10;46.60;;;24.93;56.61;95474.03;4934514;29;20506;-52
2022/08/05 01:55:46;;;;;;;6.32;2.63;;;28.00;46.80;;;24.73;56.47;95476.00;4935683;29;20042;-50
2022/08/05 01:58:16;;;;;;;4.35;2.70;;;27.90;47.00;;;24.55;57.06;95485.72;4934147;29;20035;-50
2022/08/05 02:00:50;;;;;;;4.25;2.80;;;27.90;47.20;;;24.49;58.64;95487.13;4934427;29;20026;-51
2022/08/05 02:03:33;;;;;;;4.03;3.10;;;27.70;47.70;;;24.28;59.99;95493.66;4934125;29;20038;-47
2022/08/05 02:06:05;;;;;;;5.07;2.90;;;27.60;48.10;;;24.01;58.88;95479.06;4902701;29;20118;-48
2022/08/05 02:08:35;;;;;;;3.47;2.67;;;27.50;48.00;;;23.86;58.57;95477.13;4934115;29;20035;-47
2022/08/05 02:11:14;;;;;;;4.65;2.30;;;27.40;47.90;;;23.73;58.33;95471.78;4934163;29;20038;-50
2022/08/05 02:14:11;;;;;;;3.65;2.67;;;27.30;48.10;;;23.70;58.18;95455.38;4934110;29;20027;-49
2022/08/05 02:17:13;;;;;;;4.90;2.80;;;27.20;48.00;;;23.70;58.85;95450.75;4934170;29;20550;-47
2022/08/05 02:19:57;;;;;;;3.28;2.53;;;27.10;48.10;;;23.62;59.23;95446.22;4933778;29;20035;-46
2022/08/05 02:22:42;;;;;;;2.53;2.33;;;27.10;48.40;;;23.56;59.66;95456.56;4916734;29;20540;-52
2022/08/05 02:25:20;;;;;;;2.65;2.45;;;27.00;48.50;;;23.50;58.87;95458.00;4918044;29;20050;-47
2022/08/05 02:27:58;;;;;;;5.47;2.60;;;27.00;48.50;;;23.48;58.44;95454.81;4917802;29;20027;-49
2022/08/05 02:30:33;;;;;;;5.30;2.20;;;26.90;48.40;;;23.46;58.70;95446.22;4933860;29;20034;-51
2022/08/05 02:33:10;;;;;;;4.25;2.45;;;26.90;48.40;;;23.46;58.22;95440.00;4933930;29;20031;-46
2022/08/05 02:35:40;;;;;;;2.80;2.50;;;26.90;48.40;;;23.47;57.99;95452.44;4917833;29;20031;-51
2022/08/05 02:38:09;;;;;;;3.92;2.25;;;26.90;48.30;;;23.41;58.03;95442.97;4933523;29;20019;-48
2022/08/05 02:40:45;;;;;;;4.97;2.50;;;26.90;48.30;;;23.41;57.99;95451.13;4918005;29;20117;-48
2022/08/05 02:43:24;;;;;;;2.50;2.30;;;26.90;48.40;;;23.42;58.05;95447.28;4933458;29;20038;-49
2022/08/05 02:45:52;;;;;;;3.38;2.38;;;26.80;48.30;;;23.37;57.77;95440.16;4934870;29;20050;-48
2022/08/05 02:48:22;;;;;;;2.30;2.10;;;26.80;48.20;;;23.36;58.11;95441.31;4932880;29;20015;-46
2022/08/05 02:50:50;;;;;;;2.80;2.30;;;26.80;48.20;;;23.36;58.44;95446.75;4934859;29;20566;-46
2022/08/05 02:53:30;;;;;;;3.63;2.40;;;26.80;48.30;;;23.30;58.83;95446.22;4933158;29;20379;-46
2022/08/05 02:56:02;;;;;;;2.55;2.35;;;26.70;48.50;;;23.22;59.11;95438.22;4933498;29;20054;-48
2022/08/05 02:58:29;;;;;;;3.45;2.80;;;26.70;48.40;;;23.16;59.37;95443.16;4933114;29;20034;-48
2022/08/05 03:01:01;;;;;;;4.78;2.58;;;26.70;48.40;;;23.14;59.36;95437.25;4933566;29;20081;-49
2022/08/05 03:03:31;;;;;;;2.70;2.50;;;26.70;48.60;;;23.13;59.90;95440.31;4934153;29;20145;-52
2022/08/05 03:05:59;;;;;;;5.35;2.60;;;26.60;48.60;;;23.17;60.04;95433.06;4933095;29;20085;-47
2022/08/05 03:08:29;;;;;;;2.80;2.60;;;26.60;48.80;;;23.14;59.89;95439.19;4933030;29;20074;-46
2022/08/05 03:10:55;;;;;;;2.78;2.58;;;26.60;48.90;;;23.11;60.28;95429.81;4933243;29;20043;-49
2022/08/05 03:13:27;;;;;;;2.75;2.50;;;26.50;49.50;;;;;;4933108;29;20625;-49
2022/08/05 03:15:59;;;;;;;3.95;3.30;;;26.50;49.10;;;23.06;60.61;95402.91;4933026;29;20019;-48
2022/08/05 03:18:30;;;;;;;5.07;2.90;;;26.50;49.20;;;23.02;60.65;95410.16;4933741;29;20109;-50
2022/08/05 03:20:58;;;;;;;3.55;2.70;;;26.40;49.10;;;22.98;60.88;95404.66;4934403;29;20285;-48
2022/08/05 03:23:29;;;;;;;3.35;2.88;;;26.40;49.20;;;22.92;61.34;95408.72;4932998;29;20061;-50
2022/08/05 03:26:05;;;;;;;3.53;2.60;;;26.40;49.60;;;22.84;61.78;95412.38;4932926;29;20162;-48
2022/08/05 03:28:35;;;;;;;4.20;2.75;;;26.30;49.80;;;22.73;62.30;95408.59;4932478;29;20035;-51
2022/08/05 03:31:03;;;;;;;3.90;2.67;;;26.20;49.90;;;22.68;62.72;95406.91;4932729;29;20057;-49
2022/08/05 03:33:37;;;;;;;3.03;2.72;;;26.20;50.10;;;22.67;62.48;95412.69;4932407;29;20031;-50
2022/08/05 03:36:05;;;;;;;3.83;2.92;;;26.20;50.30;;;22.67;62.60;95402.63;4916948;29;20030;-47
2022/08/05 03:38:31;;;;;;;4.40;2.55;;;26.10;50.30;;;22.57;63.89;95409.34;4933603;29;20038;-47
2022/08/05 03:41:00;;;;;;;3.75;2.72;;;26.10;50.60;;;22.39;64.89;95400.69;4932612;29;20043;-47
2022/08/05 03:43:26;;;;;;;3.15;2.80;;;26.00;50.90;;;22.24;65.82;95401.41;4932354;29;20067;-50
2022/08/05 03:46:04;;;;;;;3.17;2.88;;;25.90;51.10;;;22.24;66.43;95398.69;4932173;29;20062;-47
2022/08/05 03:48:36;;;;;;;4.38;3.20;;;25.80;51.60;;;22.17;66.46;95395.78;4932397;29;20672;-50
2022/08/05 03:51:30;;;;;;;4.80;2.97;;;25.70;51.80;;;22.11;67.33;95395.19;4916731;29;20023;-48
2022/08/05 03:53:59;;;;;;;4.80;2.67;;;25.70;52.10;;;22.02;67.71;95380.19;4932478;29;20685;-49
2022/08/05 03:56:49;;;;;;;4.78;3.08;;;25.60;52.20;;;21.93;68.11;95383.03;4932339;29;20047;-47
2022/08/05 03:59:31;;;;;;;5.15;2.90;;;25.50;52.70;;;21.88;68.06;95383.28;4916369;29;20050;-49
2022/08/05 04:02:01;;;;;;;3.03;2.72;;;25.40;52.80;;;21.80;68.27;95390.38;4915994;29;20027;-47
2022/08/05 04:04:34;;;;;;;2.85;2.65;;;25.30;52.80;;;21.78;68.13;95391.84;4932091;29;20060;-45
2022/08/05 04:07:00;;;;;;;2.60;2.40;;;25.30;53.10;;;21.70;68.09;95386.22;4916278;29;20031;-45
2022/08/05 04:09:45;;;;;;;2.92;2.55;;;25.20;53.00;;;21.65;68.51;95383.72;4916368;29;20920;-45
2022/08/05 04:12:14;;;;;;;4.00;2.50;;;25.10;53.30;;;21.58;68.34;95382.72;4900592;29;20051;-47
2022/08/05 04:14:42;;;;;;;3.20;2.80;;;25.10;53.20;;;21.48;68.78;95383.97;4932079;29;20112;-50
2022/08/05 04:17:10;;;;;;;4.50;2.67;;;25.00;53.30;;;21.36;69.62;95379.34;4916173;29;20109;-48
2022/08/05 04:19:47;;;;;;;3.00;2.70;;;25.00;53.50;;;21.27;69.57;95384.84;4932095;29;20034;-49
2022/08/05 04:22:25;;;;;;;4.10;2.80;;;24.90;53.90;;;21.26;69.34;95383.25;4932031;29;20110;-46
2022/08/05 04:24:51;;;;;;;4.25;2.30;;;24.80;53.80;;;21.27;68.97;95390.25;4932903;29;20093;-46
2022/08/05 04:27:20;;;;;;;2.72;2.50;;;24.80;53.80;;;21.21;68.91;95386.19;4931535;29;20426;-47
2022/08/05 04:29:49;;;;;;;2.88;2.45;;;24.80;54.00;;;21.22;68.88;95385.06;4916144;29;20050;-49
2022/08/05 04:32:21;;;;;;;2.92;2.72;;;24.80;54.00;;;21.20;68.64;95383.81;4931884;29;20047;-48
2022/08/05 04:34:47;;;;;;;3.20;2.58;;;24.70;54.10;;;21.22;68.20;95384.28;4931893;29;20082;-46
2022/08/05 04:37:16;;;;;;;2.67;2.17;;;24.70;53.90;;;21.21;68.47;95388.09;4916171;29;20022;-49
2022/08/05 04:39:50;;;;;;;3.83;2.20;;;24.70;54.00;;;21.17;68.52;95384.50;4931855;29;20114;-49
2022/08/05 04:42:21;;;;;;;2.65;2.20;;;24.70;54.10;;;21.14;68.47;95387.88;4916234;29;20430;-47
2022/08/05 04:44:47;;;;;;;3.33;2.10;;;24.70;54.00;;;21.12;68.37;95371.97;4913441;29;20048;-50
2022/08/05 04:47:13;;;;;;;2.20;2.10;;;24.70;54.00;;;21.15;67.93;95381.31;4916977;29;20034;-50
2022/08/05 04:49:41;;;;;;;2.15;1.95;;;24.70;53.90;;;21.20;67.73;95379.19;4903802;29;20395;-52
2022/08/05 04:52:07;;;;;;;2.97;2.45;;;24.80;54.00;;;21.23;66.88;95380.44;4917804;29;20028;-50
2022/08/05 04:54:36;;;;;;;5.50;2.10;;;24.80;53.80;;;21.26;66.94;95383.25;4917701;29;20035;-50
2022/08/05 04:57:02;;;;;;;5.93;2.30;;;24.80;53.70;;;21.29;66.84;95381.00;4932329;29;20031;-48
2022/08/05 04:59:31;;;;;;;2.70;2.17;;;24.90;53.50;;;21.29;66.47;95384.50;4916570;29;20023;-49
2022/08/05 05:01:57;;;;;;;2.50;2.28;;;25.00;53.50;;;21.34;66.13;95387.00;4932602;29;20023;-48
2022/08/05 05:04:26;;;;;;;2.65;1.98;;;25.00;53.30;;;21.41;65.94;95395.38;4917175;29;20514;-49
2022/08/05 05:06:55;;;;;;;2.30;2.10;;;25.10;53.20;;;21.50;65.26;95398.00;4931780;29;20074;-46
2022/08/05 05:09:20;;;;;;;2.65;2.15;;;25.10;53.00;;;21.54;65.33;95392.69;4929716;29;20031;-51
2022/08/05 05:11:49;;;;;;;2.38;2.05;;;25.20;52.80;;;21.60;65.03;95402.16;4917565;29;20496;-53
2022/08/05 05:14:18;;;;;;;3.50;2.20;;;25.30;52.70;;;21.68;64.79;95404.72;4915800;29;20084;-49
2022/08/05 05:16:46;;;;;;;4.57;2.90;;;25.40;52.60;;;21.77;64.50;95410.03;4916504;29;20387;-49
2022/08/05 05:19:12;;;;;;;2.65;2.20;;;25.50;52.40;;;21.85;64.45;95411.06;4913185;29;20141;-51
2022/08/05 05:21:38;;;;;;;2.13;1.92;;;25.60;52.30;;;21.91;64.19;95407.00;4911158;29;20023;-52
2022/08/05 05:24:04;;;;;;;3.72;2.28;;;25.70;52.20;;;21.96;63.91;95401.31;4911599;29;20082;-49
2022/08/05 05:26:46;;;;;;;3.15;2.33;;;25.70;52.00;;;22.12;64.98;95401.41;4917125;29;20029;-52
2022/08/05 05:29:14;;;;;;;3.88;2.30;;;25.80;52.20;;;22.25;64.21;95413.03;4931072;29;20027;-51
2022/08/05 05:31:40;;;;;;;1.92;1.83;;;25.90;51.90;;;22.53;63.06;95413.06;4917355;29;20522;-46
2022/08/05 05:34:06;;;;;;;5.07;2.28;;;26.10;51.70;;;22.73;61.67;95411.31;4931690;29;20087;-50
2022/08/05 05:36:34;;;;;;;2.50;2.30;;;26.30;51.40;;;23.00;60.85;95412.44;4917264;29;20478;-49
2022/08/05 05:39:00;;;;;;;4.93;2.60;;;26.50;51.10;;;23.36;59.84;95416.06;4916811;29;20039;-52
2022/08/05 05:41:29;;;;;;;2.10;1.75;;;26.80;50.90;;;23.68;58.45;95416.84;4915906;29;20024;-48
2022/08/05 05:43:55;;;;;;;4.38;1.90;;;27.10;50.40;;;24.12;57.07;95416.72;4916156;29;20035;-49
2022/08/05 05:46:20;;;;;;;3.22;2.42;;;27.50;50.00;;;24.49;56.14;95417.16;4935481;29;20387;-44
2022/08/05 05:48:47;;;;;;;4.95;1.98;;;27.80;49.40;;;24.62;55.79;95417.78;4934297;29;20105;-48
2022/08/05 05:51:26;;;;;;;4.50;2.60;;;28.00;49.10;;;24.62;55.84;95412.34;4935664;29;20435;-45
2022/08/05 05:53:56;;;;;;;7.85;2.00;;;28.10;48.80;;;24.63;56.41;95419.34;4930120;29;20503;-47
2022/08/05 05:56:22;;;;;;;4.55;2.00;;;28.20;48.60;;;24.61;56.08;95422.44;4927306;29;20133;-48
2022/08/05 05:58:48;;;;;;;3.60;1.90;;;28.40;48.30;;;24.59;55.66;95430.19;4930041;29;20117;-45
2022/08/05 06:01:14;;;;;;;3.53;1.90;;;28.50;47.90;;;24.50;55.74;95426.88;4915765;29;20066;-49
2022/08/05 06:03:46;;;;;;;3.22;2.20;;;28.60;47.60;;;24.54;55.20;95426.94;4918313;29;20035;-45
2022/08/05 06:06:12;;;;;;;2.17;1.98;;;28.70;47.10;;;24.49;55.41;95433.47;4928908;29;20102;-45
2022/08/05 06:08:38;;;;;;;2.75;2.00;;;28.70;46.90;;;24.60;55.39;95434.50;4917138;29;20433;-50
2022/08/05 06:11:09;;;;;;;2.25;1.80;;;28.80;46.80;;;24.78;55.19;95450.38;4928419;29;20039;-51
2022/08/05 06:13:35;;;;;;;3.17;2.10;;;28.80;46.70;;;24.70;54.50;95452.97;4930403;29;20054;-47
2022/08/05 06:16:06;;;;;;;2.20;2.00;;;28.80;46.50;;;24.79;54.86;95450.03;4935363;29;20054;-45
2022/08/05 06:18:32;;;;;;;4.00;1.90;;;28.90;46.30;;;25.02;54.40;95469.16;4933577;29;20027;-48
2022/08/05 06:21:01;;;;;;;2.47;2.28;;;29.10;46.10;;;25.26;53.53;95487.16;4930863;29;20029;-47
2022/08/05 06:23:30;;;;;;;1.85;1.75;;;29.40;45.90;;;25.54;52.82;95488.81;4922821;29;20121;-47
2022/08/05 06:25:59;;;;;;;2.33;2.13;;;29.70;45.60;;;25.66;52.54;95502.28;4923539;29;20034;-52
2022/08/05 06:28:25;;;;;;;2.38;2.20;;;29.80;45.20;;;25.62;52.29;95504.94;4934484;29;20606;-52
2022/08/05 06:31:00;;;;;;;2.10;1.85;;;30.00;45.00;;;25.71;51.72;95507.44;4934072;29;20042;-51
2022/08/05 06:33:28;;;;;;;4.05;2.08;;;30.10;44.60;;;25.80;52.10;95515.38;4933470;29;20031;-49
2022/08/05 06:35:54;;;;;;;2.22;1.85;;;30.20;44.50;;;25.83;52.42;95510.00;4935014;29;20046;-47
2022/08/05 06:38:20;;;;;;;2.05;1.80;;;30.20;44.40;;;25.91;51.10;95502.72;4917272;29;20114;-47
2022/08/05 06:40:54;;;;;;;3.85;2.53;;;30.30;44.10;;;26.04;52.37;95506.03;4917746;29;20070;-51
2022/08/05 06:43:35;;;;;;;2.00;1.83;;;30.40;44.20;;;26.14;52.19;95513.63;4917738;29;20038;-53
2022/08/05 06:46:05;;;;;;;3.53;2.00;;;30.30;44.20;;;26.16;51.74;95522.22;4923869;29;20202;-50
2022/08/05 06:48:33;;;;;;;2.00;1.80;;;30.30;44.10;;;26.01;51.93;95532.16;4933135;29;20038;-54
2022/08/05 06:50:59;;;;;;;3.30;1.90;;;30.20;44.10;;;25.93;52.04;95535.13;4934645;29;20102;-51
2022/08/05 06:53:27;;;;;;;2.70;2.20;;;30.10;44.00;;;25.92;52.77;95537.06;4934547;29;20173;-53
2022/08/05 06:56:22;;;;;;;2.78;2.58;;;30.20;44.10;;;26.39;52.38;95538.56;4933520;29;20479;-48
2022/08/05 06:58:57;;;;;;;2.65;2.33;;;30.50;44.00;;;26.81;51.14;95543.09;4934100;29;20154;-52
2022/08/05 07:01:26;;;;;;;3.80;2.80;;;31.00;43.70;;;27.30;49.99;95542.16;4933328;29;20058;-52
2022/08/05 07:03:54;;;;;;;3.88;2.40;;;31.40;43.30;;;27.80;48.80;95545.47;4933250;29;20026;-49
2022/08/05 07:06:29;;;;;;;2.55;2.35;;;31.80;42.80;;;28.32;47.23;95550.97;4933470;29;20027;-53
2022/08/05 07:09:02;;;;;;;3.00;2.70;;;32.30;42.20;;;28.78;45.51;95556.00;4916610;29;20110;-51
2022/08/05 07:11:37;;;;;;;2.90;2.70;;;32.90;41.50;;;29.08;44.91;95552.25;4933070;29;20364;-54
2022/08/05 07:16:58;;;;;;;3.55;2.80;;;33.60;40.10;;;29.68;42.87;95548.97;4933468;29;20120;-55
2022/08/05 07:19:24;;;;;;;2.60;2.40;;;34.10;39.40;;;29.62;42.06;95550.53;4934078;29;20490;-49
2022/08/05 07:21:50;;;;;;;4.60;2.80;;;34.20;38.70;;;29.57;42.60;95556.38;4901403;29;20536;-54
2022/08/05 07:24:17;;;;;;;2.58;2.38;;;34.20;38.40;;;29.50;42.65;95544.19;4933822;29;20035;-54
2022/08/05 07:26:46;;;;;;;3.92;2.60;;;34.10;38.00;;;29.33;43.10;95539.44;4885558;29;22429;-49
2022/08/05 07:29:13;;;;;;;6.40;2.50;;;34.00;37.80;;;29.15;42.43;95566.81;4933404;29;20041;-53
2022/08/05 07:31:40;;;;;;;3.67;2.30;;;33.90;37.60;;;29.03;42.66;95567.91;4933930;29;20533;-55
2022/08/05 07:34:06;;;;;;;2.95;2.65;;;33.80;37.60;;;28.97;44.27;95560.41;4934032;29;20097;-54
2022/08/05 07:36:32;;;;;;;2.88;2.60;;;33.60;37.70;;;28.97;43.46;95566.69;4916951;29;20026;-54
2022/08/05 07:39:10;;;;;;;2.85;2.10;;;33.50;37.80;;;29.10;45.35;95569.13;4932028;29;20026;-51
2022/08/05 07:41:36;;;;;;;2.63;2.42;;;33.40;38.30;;;29.15;44.16;95566.03;4933897;29;20049;-48
2022/08/05 07:44:07;;;;;;;5.22;2.50;;;33.40;38.20;;;29.12;43.30;95572.28;4933566;29;20027;-54
2022/08/05 07:46:46;;;;;;;6.90;2.75;;;33.40;38.20;;;29.11;44.03;95568.72;4921672;29;20027;-53
2022/08/05 07:49:19;;;;;;;3.42;2.60;;;33.40;38.10;;;29.24;44.44;95585.66;4916093;29;20039;-53
2022/08/05 07:51:46;;;;;;;2.58;2.38;;;33.50;38.20;;;29.44;42.54;95575.13;4933648;29;20027;-52
2022/08/05 07:54:16;;;;;;;3.08;2.40;;;33.70;37.80;;;29.62;41.83;95572.50;4931958;29;20034;-55
2022/08/05 07:56:42;;;;;;;3.45;2.58;;;34.00;37.40;;;29.76;42.88;95577.22;4932372;29;20023;-52
2022/08/05 07:59:07;;;;;;;4.13;2.67;;;34.20;37.10;;;29.96;41.39;95581.19;4916212;29;20402;-53
2022/08/05 08:01:36;;;;;;;2.85;2.65;;;34.50;36.80;;;30.12;41.22;95584.34;4933312;29;20030;-54
2022/08/05 08:04:10;;;;;;;3.00;2.80;;;34.90;36.30;;;30.51;39.53;95575.34;4915653;29;20143;-53
2022/08/05 08:06:44;;;;;;;2.70;2.47;;;35.40;35.60;;;30.48;39.50;95578.88;4916689;29;20509;-50
2022/08/05 08:09:10;;;;;;;4.07;2.35;;;35.80;34.90;;;30.17;39.87;95589.44;4916191;29;20574;-53
2022/08/05 08:11:36;;;;;;;3.30;2.40;;;36.00;34.30;;;30.46;38.81;95581.22;4925599;29;20081;-53
2022/08/05 08:14:03;;;;;;;2.83;2.50;;;36.10;33.90;;;30.56;38.02;95577.69;4916397;29;20535;-53
2022/08/05 08:16:32;;;;;;;3.60;2.85;;;36.20;33.50;;;30.50;38.34;95583.97;4932168;29;20023;-55
2022/08/05 08:19:00;;;;;;;2.85;2.65;;;36.40;33.00;;;30.52;37.99;95587.88;4916056;29;20144;-54
2022/08/05 08:21:35;;;;;;;2.97;2.30;;;36.50;32.60;;;30.91;38.09;95598.09;4931999;29;20051;-50
2022/08/05 08:24:07;;;;;;;2.78;2.58;;;36.50;32.70;;;31.20;37.63;95603.50;4933122;29;20039;-49
2022/08/05 08:26:36;;;;;;;;;;;36.50;32.60;;;31.63;38.06;95603.38;4916523;29;20045;-50
2022/08/05 08:29:10;;;;;;;2.80;2.60;;;36.60;33.00;;;31.97;36.21;95598.88;4915754;29;19996;-55
2022/08/05 08:34:33;;;;;;;2.58;2.38;;;37.20;31.80;;;32.30;33.99;95604.94;4933042;29;20031;-54
2022/08/05 08:37:02;;;;;;;4.03;2.58;;;37.40;31.40;;;32.54;34.97;95605.97;4915819;29;20023;-54
2022/08/05 08:39:33;;;;;;;2.80;2.47;;;37.70;31.10;;;32.51;33.85;95604.03;4932631;29;20031;-55
2022/08/05 08:42:03;;;;;;;2.42;2.33;;;38.10;30.30;;;32.60;33.66;95600.81;4916013;29;20034;-55
2022/08/05 08:44:32;;;;;;;2.70;2.50;;;38.50;29.80;;;33.30;33.71;95600.53;4931746;29;20062;-55
2022/08/05 08:47:07;;;;;;;2.42;2.33;;;38.90;29.80;;;33.45;31.92;95607.44;4933122;29;20043;-55
2022/08/05 08:49:42;;;;;;;2.50;2.40;;;39.30;29.20;;;33.70;32.41;95603.63;4916436;29;20501;-53
2022/08/05 08:52:22;;;;;;;2.83;2.63;;;39.70;28.80;;;34.26;31.20;95593.75;4915952;29;20023;-55
2022/08/05 08:54:52;;;;;;;2.95;2.60;;;40.10;28.40;;;34.87;30.47;95603.03;4931573;29;20115;-50
2022/08/05 08:57:21;;;;;;;2.92;2.72;;;40.50;28.10;;;35.14;29.84;95606.53;4931982;29;20015;-55
2022/08/05 08:59:49;;;;;;;2.80;2.60;;;40.90;27.80;;;35.06;30.18;95601.53;4931515;29;20398;-52
2022/08/05 09:02:20;;;;;;;3.75;3.28;;;41.20;27.20;;;35.39;29.48;95597.72;4915807;29;20468;-53
2022/08/05 09:04:49;;;;;;;3.58;2.85;;;41.50;26.90;;;35.60;29.42;95604.06;4932590;29;20490;-53
2022/08/05 09:07:30;;;;;;;3.30;2.85;;;41.80;26.70;;;35.92;28.00;95603.38;4932950;29;20085;-53
2022/08/05 09:09:56;;;;;;;3.38;2.85;;;42.10;26.10;;;35.95;27.64;95608.06;4915646;29;20019;-55
2022/08/05 09:12:22;;;;;;;3.20;3.00;;;42.30;25.90;;;36.01;27.46;95605.53;4932649;29;20030;-54
2022/08/05 09:14:49;;;;;;;3.03;2.83;;;42.50;25.50;;;35.81;28.01;95609.16;4899852;29;20027;-50
2022/08/05 09:17:24;;;;;;;3.13;2.92;;;42.60;25.20;;;35.80;26.94;95606.81;4915816;29;20027;-49
2022/08/05 09:19:53;;;;;;;2.88;2.67;;;42.70;24.80;;;35.87;27.13;95601.88;4915195;29;20030;-50
2022/08/05 09:22:19;;;;;;;3.70;2.75;;;42.70;24.60;;;36.22;27.26;95604.31;4924464;29;20032;-51
2022/08/05 09:25:07;;;;;;;4.07;2.70;;;42.80;24.50;;;36.76;26.23;95599.06;4925860;29;20586;-54
2022/08/05 09:27:36;;;;;;;3.08;2.88;;;43.00;24.50;;;36.77;25.64;95600.63;4913821;29;20378;-49
2022/08/05 09:30:06;;;;;;;5.47;2.70;;;43.30;24.10;;;36.78;25.84;95598.63;4929696;29;20078;-50
2022/08/05 09:32:38;;;;;;;2.88;2.67;;;43.30;23.80;;;36.32;25.04;95592.19;4931573;29;20031;-49
2022/08/05 09:35:14;;;;;;;2.80;2.60;;;43.30;23.30;;;36.13;26.16;95585.50;4913069;29;20058;-53
2022/08/05 09:37:53;;;;;;;2.67;2.50;;;43.30;23.40;;;36.43;26.09;95584.41;4924781;28;20554;-52
2022/08/05 09:40:42;;;;;;;2.88;2.67;;;43.20;23.40;;;36.83;26.05;95581.44;4919535;29;20114;-54
2022/08/05 09:43:34;;;;;;;2.65;2.55;;;43.20;23.60;;;37.13;24.49;95571.94;4929387;29;20476;-51
2022/08/05 09:46:02;;;;;;;3.50;3.30;;;43.40;23.40;;;36.22;25.21;95569.06;4920996;29;20036;-52
2022/08/05 09:48:34;;;;;;;2.83;2.63;;;43.40;23.10;;;36.27;25.79;95568.53;4914664;29;20118;-51
2022/08/05 09:51:08;;;;;;;2.90;2.70;;;43.30;22.90;;;36.67;25.46;95564.81;4931664;29;20082;-49
2022/08/05 09:53:55;;;;;;;3.10;2.90;;;43.30;22.90;;;36.81;25.19;95556.91;4931396;29;20114;-51
2022/08/05 09:56:37;;;;;;;3.50;3.20;;;43.50;22.80;;;36.45;25.80;95554.25;4929754;29;20447;-54
2022/08/05 09:59:19;;;;;;;3.28;2.97;;;43.60;22.80;;;36.31;26.29;95552.59;4926425;29;20043;-54
2022/08/05 10:01:45;;;;;;;;;;;43.50;22.70;;;36.73;25.57;95554.75;4914570;29;20024;-55
2022/08/05 10:04:14;;;;;;;3.10;2.90;;;43.60;23.10;;;37.23;24.54;95554.22;4923494;29;19921;-55
2022/08/05 10:06:55;;;;;;;3.97;2.70;;;43.80;22.80;;;37.48;24.57;95550.75;4920988;29;20140;-54
2022/08/05 10:09:21;;;;;;;3.20;2.95;;;43.90;22.60;;;38.03;24.38;95539.56;4913117;29;20047;-55
2022/08/05 10:11:49;;;;;;;3.15;2.88;;;44.10;22.60;;;38.33;23.77;95543.78;4925603;29;20023;-53
2022/08/05 10:14:31;;;;;;;3.47;3.17;;;44.40;22.50;;;38.27;24.13;95542.78;4908706;29;20492;-50
2022/08/05 10:17:14;;;;;;;3.72;3.38;;;44.60;22.50;;;38.15;24.48;95530.44;4915523;29;20038;-54
2022/08/05 10:19:42;;;;;;;3.83;3.33;;;44.60;22.20;;;38.01;23.74;95536.47;4911452;29;20038;-55
2022/08/05 10:22:08;;;;;;;3.40;3.20;;;44.70;22.00;;;38.38;23.72;95529.31;4930958;29;20111;-50
2022/08/05 10:24:38;;;;;;;3.75;3.42;;;44.80;22.00;;;38.68;23.69;95529.16;4914712;29;20507;-52
2022/08/05 10:27:13;;;;;;;3.83;3.20;;;44.90;21.80;;;38.75;24.04;95523.34;4926658;29;20023;-50
2022/08/05 10:29:39;;;;;;;3.40;3.20;;;45.10;22.30;;;38.94;23.67;95541.75;4913872;29;20115;-50
2022/08/05 10:32:06;;;;;;;3.40;3.20;;;45.30;21.90;;;38.27;22.96;95534.44;4930277;29;20436;-50
2022/08/05 10:34:33;;;;;;;4.03;3.67;;;45.40;21.40;;;37.14;24.06;95536.63;4919369;29;20059;-50
2022/08/05 10:37:11;;;;;;;3.70;3.40;;;45.20;21.20;;;37.13;24.29;95529.50;4930803;29;20586;-50
2022/08/05 10:39:48;;;;;;;3.85;3.22;;;45.00;21.00;;;37.76;23.58;95533.66;4910747;29;20487;-49
2022/08/05 10:42:25;;;;;;;3.55;3.25;;;45.00;21.20;;;37.83;23.11;95537.00;4927932;29;20059;-51
2022/08/05 10:44:56;;;;;;;4.18;3.65;;;45.00;21.10;;;38.44;22.53;95523.19;4925807;29;20106;-50